EST,Max TemperatureF,Mean TemperatureF,Min TemperatureF,Max Dew PointF,MeanDew PointF,Min DewpointF,Max Humidity, Mean Humidity, Min Humidity, Max Sea Level PressureIn, Mean Sea Level PressureIn, Min Sea Level PressureIn, Max VisibilityMiles, Mean VisibilityMiles, Min VisibilityMiles, Max Wind SpeedMPH, Mean Wind SpeedMPH, Max Gust SpeedMPH,PrecipitationIn, CloudCover, Events, WindDirDegrees
2014-2-1,60,48,37,41,26,19,67,44,20,30.08,30.00,29.92,10,10,10,20,6,29,0.00,5,,215
2014-2-2,51,42,32,46,38,30,100,96,67,30.16,30.06,29.93,10,5,0,13,7,20,0.87,8,Rain-Snow,2
2014-2-3,32,26,21,30,26,21,100,94,86,30.33,30.22,30.03,10,6,1,7,3,,0.10,7,Snow,33
2014-2-4,32,28,24,32,29,25,100,99,93,30.32,30.16,29.85,7,3,1,9,3,,0.02,8,Rain-Snow,94
2014-2-5,33,28,23,34,28,21,100,94,80,30.35,30.02,29.70,10,6,1,18,5,26,0.58,8,Rain-Snow,301
2014-2-6,28,24,21,23,20,18,100,86,69,30.46,30.39,30.35,10,8,2,7,3,,0.14,8,Snow,322
2014-2-7,21,18,14,18,13,10,93,83,68,30.46,30.40,30.33,10,9,2,9,4,,0.02,5,Snow,348
2014-2-8,30,24,17,30,21,12,100,86,79,30.33,30.25,30.15,10,9,1,6,2,,0.14,8,Snow,103
2014-2-9,32,29,26,32,29,23,100,93,75,30.23,30.13,30.06,10,7,1,12,3,18,0.02,8,Snow,298
2014-2-10,26,17,5,25,13,3,100,81,59,30.36,30.29,30.20,10,9,2,7,3,,0.08,3,Snow,13
2014-2-11,23,14,5,10,7,1,92,76,54,30.44,30.39,30.34,10,9,7,10,5,,0.00,0,,54
2014-2-12,32,21,10,21,14,7,85,72,55,30.34,30.15,29.96,10,10,10,8,5,,0.05,1,,75
2014-2-13,37,32,26,21,19,16,74,62,44,29.95,29.81,29.71,10,10,10,15,6,23,0.07,4,,337
2014-2-14,42,36,30,37,30,19,100,78,56,29.80,29.70,29.63,10,9,2,15,10,22,0.55,4,Rain-Snow,262
2014-2-15,32,26,19,32,20,18,100,82,64,30.14,30.02,29.67,10,8,1,15,9,25,0.00,7,Snow,300
2014-2-16,35,30,24,28,25,19,93,83,74,30.28,30.11,29.99,10,9,1,13,6,21,0.04,8,Snow,276
2014-2-17,48,34,21,45,28,19,100,79,57,30.28,30.08,29.76,10,10,4,26,9,34,0.12,4,Rain,140
2014-2-18,59,47,35,32,30,27,87,60,29,30.18,30.06,29.88,10,10,10,15,11,24,0.00,0,,234
2014-2-19,55,48,41,52,40,32,100,68,41,30.10,29.95,29.79,10,10,5,21,10,29,0.08,2,Rain,282
2014-2-20,69,56,42,55,46,30,94,63,53,30.04,29.84,29.64,10,10,3,26,12,43,0.43,4,Rain,201
2014-2-21,55,45,35,54,30,18,100,66,34,30.06,29.91,29.64,10,10,3,26,14,33,0.66,3,Rain,260
2014-2-22,60,48,35,30,24,19,61,43,23,30.14,30.05,29.97,10,10,10,15,8,21,0.00,0,,240
2014-2-23,50,40,30,34,31,25,100,77,43,30.19,30.06,29.98,10,10,1,15,6,21,0.01,3,Rain-Snow,25
2014-2-24,37,29,21,25,18,14,93,65,41,30.32,30.24,30.17,10,10,10,13,5,18,0.02,1,,312
2014-2-25,37,32,26,21,20,18,80,63,52,30.20,30.13,30.07,10,10,10,9,3,20,0.00,7,,344
2014-2-26,28,24,19,27,13,5,93,67,46,30.16,30.05,29.92,10,9,2,12,7,17,0.01,3,Snow,317
2014-2-27,33,25,17,12,7,0,68,51,25,30.13,29.97,29.86,10,10,10,17,10,26,0.00,1,,305
2014-2-28,39,26,14,10,8,5,67,49,28,30.23,30.15,30.08,10,10,10,12,6,,0.00,0,,108